sim
Sign-in with your pilot id or email,
or register
Callsign
Passwort

Schedule Details

Flight Number: DLH2401
Departure: Basel Mulhouse-Freiburg EuroAirport (LFSB) at 19:30
Arrival: Munich Airport (EDDM) at 20:30
Route: Lufthansa Passenger Schedule. Enter filed route here before submitting Pirep.

Weather Information
Getting current METAR information for LFSB 190800Z 11005KT 080V140 CAVOK 19/14 Q1019 NOSIG
Getting current METAR information for EDDM 190750Z 09008KT 050V110 CAVOK 12/07 Q1020 NOSIG

Schedule Frequency

Route Map